Time;durP1;ratioP1;P1;durP2;ratioP2;P2;SDS_P1;SDS_P2;PMS_P1;PMS_P2;Temp;Humidity;BMP_temperature;BMP_pressure;BME280_temperature;BME280_humidity;BME280_pressure;Samples;Min_cycle;Max_cycle;Signal;HPM_P1;HPM_P2
2022/05/07 00:00:24;;;;;;;0.20;0.20;;;;;;;2.13;70.22;99245.06;4956576;29;20039;-61
2022/05/07 00:02:49;;;;;;;0.75;0.75;;;;;;;2.07;70.13;99252.00;4956599;29;20040;-61
2022/05/07 00:05:15;;;;;;;0.63;0.50;;;;;;;2.01;69.86;99246.44;4956239;29;20155;-61
2022/05/07 00:07:41;;;;;;;0.28;0.28;;;;;;;1.96;69.66;99249.66;4956522;29;20418;-60
2022/05/07 00:14:09;;;;;;;0.65;0.57;;;;;;;2.00;69.11;99247.44;4953208;29;20058;-60
2022/05/07 00:19:19;;;;;;;0.30;0.30;;;;;;;2.06;68.35;99244.03;4955637;29;20110;-62
2022/05/07 00:21:45;;;;;;;0.30;0.30;;;;;;;2.09;68.27;99244.56;4956374;28;20490;-62
2022/05/07 00:24:10;;;;;;;0.20;0.20;;;;;;;2.16;67.91;99249.31;4955934;28;20063;-64
2022/05/07 00:26:36;;;;;;;0.20;0.20;;;;;;;2.24;67.58;99252.03;4955947;28;20035;-62
2022/05/07 00:29:02;;;;;;;0.20;0.20;;;;;;;2.30;67.19;99251.34;4955446;28;20562;-62
2022/05/07 00:31:28;;;;;;;0.20;0.20;;;;;;;2.42;66.83;99254.53;4955100;28;20061;-64
2022/05/07 00:33:53;;;;;;;0.20;0.20;;;;;;;2.50;66.55;99257.22;4955381;28;20486;-62
2022/05/07 00:36:19;;;;;;;0.45;0.45;;;;;;;2.59;66.21;99258.06;4956204;28;20035;-61
2022/05/07 00:38:45;;;;;;;0.40;0.40;;;;;;;2.67;66.05;99252.63;4955831;28;20031;-60
2022/05/07 00:41:11;;;;;;;0.30;0.30;;;;;;;2.72;65.77;99258.34;4955522;28;20482;-61
2022/05/07 00:43:39;;;;;;;0.20;0.20;;;;;;;2.72;65.58;99255.66;4955575;28;20027;-62
2022/05/07 00:46:05;;;;;;;0.50;0.50;;;;;;;2.71;65.63;99262.09;4954510;28;20027;-61
2022/05/07 00:48:32;;;;;;;0.30;0.30;;;;;;;2.67;65.52;99262.63;4955042;28;20043;-63
2022/05/07 00:53:44;;;;;;;0.32;0.32;;;;;;;3.03;64.25;99268.44;4955046;28;20062;-62
2022/05/07 00:56:09;;;;;;;0.32;0.32;;;;;;;2.97;64.66;99274.56;4955335;28;20039;-62
2022/05/07 00:58:35;;;;;;;0.30;0.30;;;;;;;2.89;64.74;99272.72;4955120;28;20518;-62
2022/05/07 01:01:01;;;;;;;0.20;0.20;;;;;;;3.42;63.88;99269.50;4955100;28;20078;-61
2022/05/07 01:03:27;;;;;;;0.20;0.20;;;;;;;5.08;60.11;99274.22;4955064;28;20035;-60
2022/05/07 01:05:53;;;;;;;0.20;0.20;;;;;;;7.80;54.53;99255.09;4955169;28;20565;-61
2022/05/07 01:08:25;;;;;;;0.20;0.20;;;;;;;10.28;49.87;99269.19;4955256;28;20210;-62
2022/05/07 01:10:52;;;;;;;0.10;0.10;;;;;;;12.29;46.87;99258.81;4955142;28;20031;-61
2022/05/07 01:13:19;;;;;;;0.20;0.20;;;;;;;13.93;45.11;99251.56;4955420;28;20121;-61
2022/05/07 01:15:46;;;;;;;0.20;0.20;;;;;;;15.36;43.29;99249.50;4955042;28;20043;-62
2022/05/07 01:18:13;;;;;;;0.20;0.20;;;;;;;16.58;42.40;99244.81;4954913;28;20387;-61
2022/05/07 01:24:02;;;;;;;0.10;0.10;;;;;;;18.91;40.64;99257.50;4944534;29;20121;-61
2022/05/07 01:26:28;;;;;;;2.47;0.20;;;;;;;16.98;44.38;99260.97;4954731;28;20095;-61
2022/05/07 01:29:03;;;;;;;0.10;0.10;;;;;;;14.71;48.79;99260.16;4954590;28;20031;-62
2022/05/07 01:31:29;;;;;;;0.43;0.30;;;;;;;13.20;52.32;99267.63;4954981;28;20087;-62
2022/05/07 01:33:55;;;;;;;0.30;0.30;;;;;;;12.16;54.18;99270.84;4954892;28;20070;-63
2022/05/07 01:36:21;;;;;;;0.20;0.20;;;;;;;11.44;55.57;99277.03;4954937;28;20445;-62
2022/05/07 01:38:48;;;;;;;0.52;0.35;;;;;;;10.55;56.97;99278.09;4954933;28;20039;-61
2022/05/07 01:41:14;;;;;;;0.17;0.17;;;;;;;9.75;58.09;99284.88;4954648;28;20027;-62
2022/05/07 01:43:40;;;;;;;0.10;0.10;;;;;;;9.14;58.86;99277.09;4954562;28;20408;-61
2022/05/07 01:48:09;;;;;;;0.10;0.10;;;;;;;8.61;59.51;99281.56;4954607;28;20062;-61
2022/05/07 01:48:54;;;;;;;0.10;0.10;;;;;;;11.27;53.40;99276.81;4954288;28;20482;-63
2022/05/07 01:51:20;;;;;;;0.10;0.10;;;;;;;15.04;45.94;99280.56;4954601;29;20038;-64
2022/05/07 01:53:46;;;;;;;0.10;0.10;;;;;;;18.12;41.00;99262.38;4954366;28;20063;-62
2022/05/07 01:56:12;;;;;;;0.10;0.10;;;;;;;20.34;38.13;99262.06;4954331;28;20039;-61
2022/05/07 01:58:38;;;;;;;0.10;0.10;;;;;;;22.17;36.57;99263.38;4954294;28;20031;-61
2022/05/07 02:01:04;;;;;;;0.10;0.10;;;;;;;23.55;35.07;99273.47;4954146;28;20035;-62
2022/05/07 02:03:30;;;;;;;0.20;0.20;;;;;;;24.72;34.41;99262.88;4954305;28;20043;-61
2022/05/07 02:05:56;;;;;;;0.10;0.10;;;;;;;25.41;34.52;99256.06;4954086;28;20039;-62
2022/05/07 02:08:22;;;;;;;0.10;0.10;;;;;;;26.05;34.56;99260.44;4954367;28;20035;-62
2022/05/07 02:10:48;;;;;;;0.10;0.10;;;;;;;26.82;34.00;99266.50;4954018;28;20043;-64
2022/05/07 02:13:13;;;;;;;0.10;0.10;;;;;;;27.26;34.29;99263.63;4954236;28;20038;-62
2022/05/07 02:15:39;;;;;;;0.10;0.10;;;;;;;27.65;34.17;99261.69;4954029;28;20424;-61
2022/05/07 02:18:05;;;;;;;0.10;0.10;;;;;;;28.19;33.60;99261.09;4953802;28;20074;-62
2022/05/07 02:20:31;;;;;;;0.00;0.00;;;;;;;28.61;33.56;99257.53;4953940;28;20178;-66
2022/05/07 02:27:00;;;;;;;0.10;0.10;;;;;;;29.17;33.83;99248.66;4951349;29;20629;-62
2022/05/07 02:30:05;;;;;;;0.15;0.15;;;;;;;29.25;34.00;99246.94;4952785;29;20035;-62
2022/05/07 02:33:10;;;;;;;0.10;0.10;;;;;;;29.12;34.17;99248.88;4943397;29;20035;-62
2022/05/07 02:36:16;;;;;;;0.10;0.10;;;;;;;29.25;34.28;99244.94;4952330;28;20522;-65
2022/05/07 02:39:21;;;;;;;0.10;0.10;;;;;;;29.47;33.94;99251.34;4953462;29;20031;-63
2022/05/07 02:45:50;;;;;;;0.10;0.10;;;;;;;29.13;34.18;99265.50;4953855;29;20043;-64
2022/05/07 02:48:56;;;;;;;0.10;0.10;;;;;;;29.47;33.84;99269.13;4952530;29;20094;-62
2022/05/07 02:52:01;;;;;;;0.10;0.10;;;;;;;29.68;33.40;99263.41;4954037;29;20089;-65
2022/05/07 03:01:52;;;;;;;0.10;0.10;;;;;;;30.93;31.93;99265.75;4956730;29;20086;-63
2022/05/07 03:04:19;;;;;;;0.20;0.20;;;;;;;31.07;31.99;99276.69;4950175;29;20039;-63
2022/05/07 03:06:45;;;;;;;0.10;0.10;;;;;;;31.38;31.26;99286.47;4967166;28;20042;-62
2022/05/07 03:09:10;;;;;;;0.10;0.10;;;;;;;31.51;31.03;99286.38;4980633;28;20039;-63
2022/05/07 03:11:36;;;;;;;0.10;0.10;;;;;;;32.41;29.76;99289.50;4967778;28;20044;-61
2022/05/07 03:14:02;;;;;;;0.10;0.10;;;;;;;32.75;29.84;99289.88;4957261;29;20079;-63
2022/05/07 03:16:28;;;;;;;0.10;0.10;;;;;;;32.97;29.52;99291.16;4956802;29;20070;-64
2022/05/07 03:18:54;;;;;;;0.10;0.10;;;;;;;33.25;29.30;99283.63;4956865;28;20455;-64
2022/05/07 03:21:20;;;;;;;0.10;0.10;;;;;;;33.14;29.49;99292.72;4957045;28;20039;-64
2022/05/07 03:23:46;;;;;;;1.23;0.20;;;;;;;32.49;29.70;99291.31;4957008;28;20106;-64
2022/05/07 03:26:12;;;;;;;0.10;0.10;;;;;;;31.82;30.50;99287.63;4957431;28;20039;-65
2022/05/07 03:28:39;;;;;;;0.10;0.10;;;;;;;31.90;30.22;99280.94;4957242;28;20043;-62
2022/05/07 03:31:05;;;;;;;1.00;0.20;;;;;;;31.76;29.82;99290.75;4957194;28;20042;-63
2022/05/07 03:33:31;;;;;;;0.10;0.10;;;;;;;31.51;30.11;99295.72;4971527;28;20122;-64
2022/05/07 03:35:57;;;;;;;0.10;0.10;;;;;;;31.92;29.42;99302.09;4956925;28;20158;-62
2022/05/07 03:38:22;;;;;;;0.10;0.10;;;;;;;32.54;28.60;99309.25;4956866;28;20043;-63
2022/05/07 03:40:48;;;;;;;0.20;0.10;;;;;;;32.82;28.04;99307.09;4956903;28;20087;-63
2022/05/07 03:43:14;;;;;;;0.10;0.10;;;;;;;32.71;28.13;99300.34;4957235;28;20135;-65
2022/05/07 03:45:40;;;;;;;0.08;0.08;;;;;;;32.83;28.08;99294.53;4956777;28;20043;-63
2022/05/07 03:48:22;;;;;;;0.10;0.10;;;;;;;32.78;28.17;99288.31;4956127;28;20123;-63
2022/05/07 03:50:48;;;;;;;0.17;0.17;;;;;;;32.74;27.97;99298.78;4943633;29;20086;-61
2022/05/07 03:53:29;;;;;;;0.10;0.10;;;;;;;32.45;28.03;99298.09;4956333;29;20554;-60
2022/05/07 03:55:57;;;;;;;0.10;0.10;;;;;;;32.63;28.24;99290.00;4956351;28;20478;-62
2022/05/07 03:58:22;;;;;;;0.13;0.13;;;;;;;32.69;27.40;99293.41;4956440;29;20031;-64
2022/05/07 04:00:48;;;;;;;0.10;0.10;;;;;;;32.69;27.20;99282.84;4956230;29;20054;-61
2022/05/07 04:03:14;;;;;;;0.10;0.10;;;;;;;32.88;27.01;99289.72;4956359;29;20038;-64
2022/05/07 04:05:40;;;;;;;0.10;0.10;;;;;;;33.02;26.93;99278.66;4955182;28;20042;-60
2022/05/07 04:08:06;;;;;;;0.22;0.22;;;;;;;32.79;26.96;99275.75;4956100;29;20480;-62
2022/05/07 04:10:32;;;;;;;0.10;0.10;;;;;;;32.49;27.09;99291.31;4956410;29;20169;-63
2022/05/07 04:12:57;;;;;;;0.10;0.10;;;;;;;32.19;27.31;99282.50;4971072;28;20045;-58
2022/05/07 04:15:23;;;;;;;0.10;0.10;;;;;;;31.77;27.34;99281.03;4955704;29;20035;-60
2022/05/07 04:17:49;;;;;;;0.10;0.10;;;;;;;31.61;27.61;99281.03;4955544;29;20078;-62
2022/05/07 04:20:16;;;;;;;0.10;0.10;;;;;;;31.93;26.72;99288.72;4955971;29;20059;-61
2022/05/07 04:22:42;;;;;;;0.00;0.00;;;;;;;31.83;27.06;99289.28;4956602;29;20037;-62
2022/05/07 04:25:10;;;;;;;0.10;0.10;;;;;;;31.99;26.54;99284.41;4956002;29;20039;-62
2022/05/07 04:27:36;;;;;;;0.20;0.20;;;;;;;32.01;26.35;99279.19;4955985;29;20035;-62
2022/05/07 04:30:02;;;;;;;0.05;0.05;;;;;;;31.92;26.46;99272.88;4955781;29;20126;-61
2022/05/07 04:32:28;;;;;;;0.10;0.10;;;;;;;31.34;27.03;99271.34;4955817;29;20090;-66
2022/05/07 04:34:57;;;;;;;0.10;0.10;;;;;;;31.20;26.71;99277.47;4955809;29;20505;-63
2022/05/07 04:37:23;;;;;;;0.10;0.10;;;;;;;31.52;26.33;99279.53;4956279;29;20491;-64
2022/05/07 04:39:49;;;;;;;0.10;0.10;;;;;;;31.54;26.25;99262.97;4955679;29;20035;-64
2022/05/07 04:42:15;;;;;;;0.30;0.30;;;;;;;31.15;26.21;99262.72;4955826;29;20509;-62
2022/05/07 04:44:41;;;;;;;0.10;0.10;;;;;;;30.79;26.48;99267.34;4955501;29;20039;-63
2022/05/07 04:47:06;;;;;;;0.10;0.10;;;;;;;30.59;26.49;99264.31;4955415;29;20077;-61
2022/05/07 04:49:49;;;;;;;0.30;0.20;;;;;;;30.77;26.10;99253.50;4957195;29;20102;-63
2022/05/07 04:52:15;;;;;;;0.13;0.13;;;;;;;30.60;26.28;99263.13;4955737;29;20035;-67
2022/05/07 04:54:41;;;;;;;0.10;0.10;;;;;;;30.33;26.43;99271.22;4955212;29;20494;-65
2022/05/07 04:57:07;;;;;;;3.63;1.05;;;;;;;29.93;26.36;99254.94;4955535;29;20039;-64
2022/05/07 04:59:32;;;;;;;0.10;0.10;;;;;;;29.83;26.41;99258.25;4955335;29;20039;-62
2022/05/07 05:01:58;;;;;;;0.10;0.10;;;;;;;30.02;26.04;99263.31;4955204;29;20557;-61
2022/05/07 05:04:24;;;;;;;1.30;0.28;;;;;;;30.13;25.69;99263.69;4955591;29;20047;-61
2022/05/07 05:06:49;;;;;;;0.10;0.10;;;;;;;30.15;25.62;99264.97;4955552;29;20081;-61
2022/05/07 05:09:15;;;;;;;0.20;0.20;;;;;;;30.43;25.26;99267.06;4955268;29;20517;-62
2022/05/07 05:11:41;;;;;;;0.10;0.10;;;;;;;30.21;25.33;99240.91;4954991;29;20078;-60
2022/05/07 05:16:52;;;;;;;0.10;0.10;;;;;;;24.28;31.24;99239.19;4955148;28;20086;-60
2022/05/07 05:19:19;;;;;;;0.10;0.10;;;;;;;21.38;34.47;99258.16;4954553;29;20082;-60
2022/05/07 05:21:45;;;;;;;1.10;0.30;;;;;;;19.23;36.74;99258.31;4955032;29;20031;-60
2022/05/07 05:24:12;;;;;;;0.15;0.15;;;;;;;17.86;37.59;99247.56;4955238;29;20573;-62
2022/05/07 05:26:37;;;;;;;0.17;0.17;;;;;;;17.10;37.69;99262.72;4954706;29;20121;-61
